Time;durP1;ratioP1;P1;durP2;ratioP2;P2;SDS_P1;SDS_P2;PMS_P1;PMS_P2;Temp;Humidity;BMP_temperature;BMP_pressure;BME280_temperature;BME280_humidity;BME280_pressure;Samples;Min_cycle;Max_cycle;Signal;HPM_P1;HPM_P2
2022/08/25 00:01:44;;;;;;;3.20;2.05;;;19.60;99.90;;;;;;5072440;28;20025;-50
2022/08/25 00:04:13;;;;;;;3.05;2.13;;;19.60;99.90;;;;;;5072168;28;20384;-50
2022/08/25 00:06:41;;;;;;;3.67;2.10;;;19.60;99.90;;;;;;5072323;28;20554;-55
2022/08/25 00:09:08;;;;;;;4.35;2.30;;;19.60;99.90;;;;;;5072097;28;20028;-53
2022/08/25 00:11:36;;;;;;;4.53;1.90;;;19.60;99.90;;;;;;5072380;28;20028;-50
2022/08/25 00:14:06;;;;;;;3.90;2.35;;;19.50;99.90;;;;;;5072114;28;20108;-55
2022/08/25 00:16:32;;;;;;;3.30;2.08;;;19.50;99.90;;;;;;5072137;28;20020;-52
2022/08/25 00:19:03;;;;;;;3.53;1.90;;;19.50;99.90;;;;;;5071834;28;20086;-47
2022/08/25 00:21:30;;;;;;;5.68;2.15;;;19.50;99.90;;;;;;5072132;28;20016;-47
2022/08/25 00:23:57;;;;;;;4.25;2.20;;;19.50;99.90;;;;;;5072087;28;20036;-48
2022/08/25 00:26:23;;;;;;;4.15;2.30;;;19.50;99.90;;;;;;5071790;28;20060;-56
2022/08/25 00:28:49;;;;;;;3.78;2.38;;;19.50;99.90;;;;;;5071917;28;20052;-53
2022/08/25 00:31:19;;;;;;;4.55;2.20;;;19.40;99.90;;;;;;5070538;28;20063;-55
2022/08/25 00:33:46;;;;;;;6.18;2.47;;;19.40;99.90;;;;;;5071786;28;20467;-52
2022/08/25 00:36:13;;;;;;;3.30;2.38;;;19.50;99.90;;;;;;5071855;28;20115;-49
2022/08/25 00:38:39;;;;;;;3.45;2.08;;;19.50;99.90;;;;;;5071598;28;20020;-48
2022/08/25 00:41:06;;;;;;;5.25;2.13;;;19.50;99.90;;;;;;5071786;28;20042;-46
2022/08/25 00:43:56;;;;;;;3.75;1.98;;;19.50;99.90;;;;;;5071021;28;20509;-54
2022/08/25 00:46:30;;;;;;;3.30;1.95;;;19.60;99.90;;;;;;5071608;28;20029;-56
2022/08/25 00:49:03;;;;;;;6.68;2.40;;;19.50;99.90;;;;;;5071261;28;20044;-54
2022/08/25 00:51:39;;;;;;;3.03;2.03;;;19.50;99.90;;;;;;5071560;28;20051;-53
2022/08/25 00:54:06;;;;;;;4.00;2.22;;;19.60;99.90;;;;;;5071372;28;20012;-53
2022/08/25 00:56:34;;;;;;;5.85;2.67;;;19.60;99.90;;;;;;5071458;28;20028;-51
2022/08/25 00:59:01;;;;;;;5.18;2.60;;;19.70;99.90;;;;;;5069937;28;20028;-52
2022/08/25 01:01:27;;;;;;;5.72;2.60;;;19.70;99.90;;;;;;5071394;28;20475;-55
2022/08/25 01:03:53;;;;;;;2.92;2.03;;;19.70;99.90;;;;;;5071167;28;20021;-52
2022/08/25 01:06:19;;;;;;;5.63;2.30;;;19.80;99.90;;;;;;5071198;28;20060;-51
2022/08/25 01:08:45;;;;;;;3.67;2.38;;;19.80;99.90;;;;;;5071174;28;20032;-48
2022/08/25 01:11:11;;;;;;;3.45;2.33;;;19.90;99.90;;;;;;5071223;28;20025;-48
2022/08/25 01:13:44;;;;;;;5.15;2.60;;;19.80;99.90;;;;;;5071194;28;20118;-46
2022/08/25 01:16:11;;;;;;;3.75;2.45;;;19.90;99.90;;;;;;5071098;28;20032;-48
2022/08/25 01:18:43;;;;;;;4.35;2.70;;;19.90;99.90;;;;;;5070967;28;20033;-51
2022/08/25 01:21:09;;;;;;;4.35;2.88;;;19.90;99.90;;;;;;5070795;28;20414;-53
2022/08/25 01:23:34;;;;;;;5.82;3.22;;;19.90;99.90;;;;;;5071113;28;20055;-48
2022/08/25 01:26:09;;;;;;;5.22;3.17;;;20.00;99.90;;;;;;5071245;28;20124;-47
2022/08/25 01:28:36;;;;;;;8.30;3.47;;;20.00;99.90;;;;;;5070939;28;20432;-48
2022/08/25 01:31:02;;;;;;;6.63;3.80;;;20.00;99.90;;;;;;5071050;28;20017;-47
2022/08/25 01:33:28;;;;;;;4.82;3.15;;;20.00;99.90;;;;;;5070944;28;20059;-48
2022/08/25 01:35:54;;;;;;;6.45;2.90;;;20.00;99.90;;;;;;5071016;28;20044;-53
2022/08/25 01:38:20;;;;;;;6.22;3.50;;;20.00;99.90;;;;;;5070671;28;20386;-48
2022/08/25 01:40:45;;;;;;;5.75;3.30;;;19.90;99.90;;;;;;5071208;28;20021;-50
2022/08/25 01:43:14;;;;;;;5.30;3.75;;;19.90;99.90;;;;;;5070878;28;20074;-50
2022/08/25 01:45:45;;;;;;;5.85;3.40;;;19.90;99.90;;;;;;5071024;28;20023;-52
2022/08/25 01:48:11;;;;;;;6.60;3.40;;;19.90;99.90;;;;;;5070667;28;20488;-53
2022/08/25 01:50:38;;;;;;;5.05;3.58;;;19.90;99.90;;;;;;5070629;28;20108;-48
2022/08/25 01:53:18;;;;;;;7.07;3.75;;;19.80;99.90;;;;;;5070835;28;20051;-46
2022/08/25 01:55:50;;;;;;;5.88;3.45;;;19.80;99.90;;;;;;5070840;28;20024;-49
2022/08/25 01:58:25;;;;;;;6.35;3.50;;;19.80;99.90;;;;;;5074861;28;20023;-52
2022/08/25 02:00:55;;;;;;;6.65;3.63;;;19.80;99.90;;;;;;5074676;28;20033;-47
2022/08/25 02:03:23;;;;;;;6.15;3.40;;;19.80;99.90;;;;;;5074780;28;20029;-46
2022/08/25 02:05:50;;;;;;;7.32;3.97;;;19.80;99.90;;;;;;5074501;28;20019;-50
2022/08/25 02:08:16;;;;;;;9.35;3.97;;;19.70;99.90;;;;;;5074634;28;20476;-46
2022/08/25 02:10:42;;;;;;;6.07;3.80;;;19.70;99.90;;;;;;5074452;28;20800;-49
2022/08/25 02:13:08;;;;;;;5.03;3.65;;;19.70;99.90;;;;;;5074604;28;20060;-50
2022/08/25 02:15:39;;;;;;;5.63;3.58;;;19.70;99.90;;;;;;5074401;28;20106;-51
2022/08/25 02:18:05;;;;;;;5.93;3.58;;;19.60;99.90;;;;;;5074558;28;20148;-48
2022/08/25 02:20:30;;;;;;;6.47;3.67;;;19.60;99.90;;;;;;5074359;28;20135;-48
2022/08/25 02:22:56;;;;;;;6.50;3.42;;;19.60;99.90;;;;;;5074202;28;20025;-52
2022/08/25 02:25:22;;;;;;;5.07;3.20;;;19.60;99.90;;;;;;5072581;28;20027;-51
2022/08/25 02:27:48;;;;;;;6.53;3.53;;;19.60;99.90;;;;;;5074002;28;20048;-49
2022/08/25 02:30:14;;;;;;;7.50;3.75;;;19.60;99.90;;;;;;5074220;28;20391;-46
2022/08/25 02:32:40;;;;;;;8.25;3.72;;;19.60;99.90;;;;;;5074124;28;20028;-48
2022/08/25 02:35:06;;;;;;;6.82;4.05;;;19.60;99.90;;;;;;5074180;28;20082;-46
2022/08/25 02:37:33;;;;;;;7.13;3.90;;;19.50;99.90;;;;;;5074226;28;20013;-50
2022/08/25 02:39:59;;;;;;;6.05;3.72;;;18.70;99.90;;;;;;5074018;28;20029;-49
2022/08/25 02:42:26;;;;;;;9.20;3.80;;;19.30;99.90;;;;;;5073581;28;20078;-46
2022/08/25 02:44:52;;;;;;;7.10;4.03;;;19.30;99.90;;;;;;5073808;28;20020;-47
2022/08/25 02:47:18;;;;;;;7.35;4.57;;;19.30;99.90;;;;;;5073578;28;20494;-47
2022/08/25 02:49:44;;;;;;;6.55;4.15;;;19.30;99.90;;;;;;5073836;28;20021;-48
2022/08/25 02:52:09;;;;;;;7.53;3.97;;;19.30;99.90;;;;;;5073866;28;20078;-55
2022/08/25 02:54:35;;;;;;;8.27;3.83;;;19.40;99.90;;;;;;5073682;28;20024;-53
2022/08/25 02:57:01;;;;;;;9.02;4.15;;;19.40;99.90;;;;;;5073715;28;20103;-50
2022/08/25 02:59:27;;;;;;;6.88;3.65;;;19.40;99.90;;;;;;5073331;28;20120;-46
2022/08/25 03:01:53;;;;;;;7.50;3.80;;;19.50;99.90;;;;;;5073675;28;20020;-47
2022/08/25 03:04:18;;;;;;;6.40;4.00;;;19.50;99.90;;;;;;5073439;28;20024;-47
2022/08/25 03:06:44;;;;;;;6.10;3.50;;;19.50;99.90;;;;;;5073105;28;20020;-48
2022/08/25 03:09:10;;;;;;;5.72;3.63;;;19.50;99.90;;;;;;5073559;28;20029;-52
2022/08/25 03:11:37;;;;;;;5.93;3.80;;;19.50;99.90;;;;;;5073354;28;20048;-53
2022/08/25 03:14:04;;;;;;;6.20;3.47;;;19.50;99.90;;;;;;5072633;28;20033;-46
2022/08/25 03:16:30;;;;;;;7.72;3.63;;;19.50;99.90;;;;;;5070402;28;20032;-54
2022/08/25 03:18:56;;;;;;;6.18;3.30;;;19.50;99.90;;;;;;5073296;28;20039;-51
2022/08/25 03:21:22;;;;;;;5.47;3.15;;;19.50;99.90;;;;;;5073049;28;20088;-47
2022/08/25 03:23:47;;;;;;;5.30;2.88;;;19.50;99.90;;;;;;5073303;28;20031;-52
2022/08/25 03:28:57;;;;;;;5.15;2.88;;;19.60;99.90;;;;;;5073404;28;20070;-53
2022/08/25 03:31:26;;;;;;;4.03;2.75;;;19.60;99.90;;;;;;5073191;28;20052;-47
2022/08/25 03:33:52;;;;;;;4.70;2.47;;;19.50;99.90;;;;;;5073225;28;20064;-50
2022/08/25 03:36:18;;;;;;;5.57;2.75;;;19.60;99.90;;;;;;5073100;28;20024;-54
2022/08/25 03:38:44;;;;;;;5.00;2.78;;;19.60;99.90;;;;;;5072907;28;20067;-46
2022/08/25 03:41:20;;;;;;;4.82;2.88;;;19.60;99.90;;;;;;5072998;28;20037;-46
2022/08/25 03:43:46;;;;;;;5.50;2.67;;;19.60;99.90;;;;;;5072818;28;20017;-46
2022/08/25 03:46:23;;;;;;;4.55;2.20;;;19.60;99.90;;;;;;5072807;28;20024;-49
2022/08/25 03:48:49;;;;;;;4.65;2.65;;;19.60;99.90;;;;;;5072490;28;20041;-55
2022/08/25 03:51:27;;;;;;;5.80;2.80;;;19.60;99.90;;;;;;5072619;28;20535;-50
2022/08/25 03:53:54;;;;;;;4.53;2.17;;;19.60;99.90;;;;;;5072849;28;20060;-49
2022/08/25 03:56:19;;;;;;;4.25;2.45;;;19.70;99.90;;;;;;5072581;28;20452;-52
2022/08/25 03:58:46;;;;;;;4.68;2.63;;;19.70;99.90;;;;;;5072578;28;20021;-46
2022/08/25 04:01:13;;;;;;;5.70;2.80;;;19.60;99.90;;;;;;5072398;28;20475;-47
2022/08/25 04:03:39;;;;;;;5.60;2.67;;;19.70;99.90;;;;;;5072566;28;20016;-46
2022/08/25 04:06:06;;;;;;;5.10;2.60;;;19.70;99.90;;;;;;5072366;28;20032;-52
2022/08/25 04:08:32;;;;;;;5.80;2.92;;;19.70;99.90;;;;;;5072349;28;20021;-51
2022/08/25 04:10:58;;;;;;;4.63;3.10;;;19.60;99.90;;;;;;5072242;28;20032;-54
2022/08/25 04:13:24;;;;;;;4.95;2.97;;;19.60;99.90;;;;;;5072201;28;20031;-48
2022/08/25 04:15:50;;;;;;;7.15;3.15;;;19.50;99.90;;;;;;5072116;28;20040;-49
2022/08/25 04:18:16;;;;;;;7.22;3.25;;;19.50;99.90;;;;;;5069104;28;20029;-54
2022/08/25 04:20:42;;;;;;;11.40;3.58;;;19.40;99.90;;;;;;5062463;28;20039;-52
2022/08/25 04:23:09;;;;;;;9.27;3.28;;;19.30;99.90;;;;;;5070179;28;20107;-48
2022/08/25 04:25:40;;;;;;;15.23;3.53;;;19.20;99.90;;;;;;5066069;28;20116;-48
2022/08/25 04:28:05;;;;;;;11.63;2.20;;;19.10;99.90;;;;;;5067296;28;20557;-46
2022/08/25 04:30:31;;;;;;;7.40;2.22;;;19.00;99.90;;;;;;5067649;28;20064;-46
2022/08/25 04:32:57;;;;;;;7.28;2.03;;;18.90;99.90;;;;;;5062712;28;20060;-50
2022/08/25 04:35:23;;;;;;;8.32;1.65;;;18.90;99.90;;;;;;5070827;28;20020;-51
2022/08/25 04:37:48;;;;;;;7.50;1.50;;;18.80;99.90;;;;;;5071699;28;20520;-48
2022/08/25 04:40:14;;;;;;;6.45;1.60;;;18.80;99.90;;;;;;5071327;28;20032;-50
2022/08/25 04:42:40;;;;;;;5.32;1.70;;;18.80;99.90;;;;;;5071393;28;20036;-53
2022/08/25 04:45:06;;;;;;;5.30;1.77;;;18.80;99.90;;;;;;5064630;28;20085;-51
2022/08/25 04:47:38;;;;;;;5.43;1.75;;;18.80;99.90;;;;;;5068760;28;20127;-51
2022/08/25 04:50:05;;;;;;;3.42;1.60;;;18.80;99.90;;;;;;5061980;28;20024;-49
2022/08/25 04:52:31;;;;;;;5.18;2.38;;;18.80;99.90;;;;;;5067772;28;20068;-50
2022/08/25 04:54:58;;;;;;;4.32;1.95;;;18.80;99.90;;;;;;5063669;28;20674;-57
2022/08/25 04:57:23;;;;;;;5.45;2.17;;;18.80;99.90;;;;;;5067261;28;20543;-50
2022/08/25 04:59:49;;;;;;;3.85;2.25;;;18.80;99.90;;;;;;5069035;28;20120;-53
2022/08/25 05:02:15;;;;;;;6.30;2.35;;;18.80;99.90;;;;;;5066220;28;20492;-57
2022/08/25 05:04:41;;;;;;;6.63;2.55;;;18.80;99.90;;;;;;5069704;28;20028;-53
2022/08/25 05:07:06;;;;;;;7.05;2.38;;;18.80;99.90;;;;;;5071209;28;20503;-48
2022/08/25 05:09:33;;;;;;;4.88;2.20;;;18.80;99.90;;;;;;5071247;28;20028;-51
2022/08/25 05:12:01;;;;;;;7.10;2.50;;;18.90;99.90;;;;;;5071169;28;20079;-51
2022/08/25 05:14:26;;;;;;;4.63;2.40;;;18.90;99.90;;;;;;5071255;28;20070;-53
2022/08/25 05:16:53;;;;;;;7.28;2.53;;;18.90;99.90;;;;;;5074723;28;20028;-48
2022/08/25 05:19:19;;;;;;;5.63;2.38;;;18.90;99.90;;;;;;5070203;28;20483;-47
2022/08/25 05:21:45;;;;;;;12.55;3.22;;;18.90;99.90;;;;;;5069187;28;20077;-52
2022/08/25 05:24:10;;;;;;;6.97;2.97;;;18.90;99.90;;;;;;5071757;28;20034;-48
2022/08/25 05:26:37;;;;;;;5.07;2.10;;;18.90;99.90;;;;;;5071030;28;20454;-47
2022/08/25 05:29:04;;;;;;;5.70;2.28;;;18.20;99.90;;;;;;5070696;28;20020;-47
2022/08/25 05:31:31;;;;;;;5.97;2.20;;;18.80;99.90;;;;;;5070511;28;20024;-50
2022/08/25 05:33:57;;;;;;;3.38;1.85;;;18.80;99.90;;;;;;5070824;28;20415;-46
2022/08/25 05:36:25;;;;;;;4.18;2.03;;;18.80;99.90;;;;;;5070798;28;20033;-49
2022/08/25 05:38:51;;;;;;;4.93;1.67;;;18.80;99.90;;;;;;5070786;28;20031;-49
2022/08/25 05:41:20;;;;;;;4.78;2.22;;;18.70;99.90;;;;;;5070905;28;20032;-56
2022/08/25 05:43:48;;;;;;;2.90;1.70;;;18.70;99.90;;;;;;5070814;28;20020;-50
2022/08/25 05:46:18;;;;;;;3.83;1.70;;;18.70;99.90;;;;;;5070868;28;20035;-52
2022/08/25 05:48:44;;;;;;;2.25;1.33;;;18.70;99.90;;;;;;5070578;28;20072;-50
2022/08/25 05:51:11;;;;;;;4.50;1.80;;;18.70;99.90;;;;;;5070791;28;20029;-46
2022/08/25 05:53:40;;;;;;;5.82;2.17;;;18.80;99.90;;;;;;5070978;28;20078;-50
2022/08/25 05:56:06;;;;;;;3.15;1.80;;;18.80;99.90;;;;;;5070653;28;20479;-52
2022/08/25 05:58:32;;;;;;;3.83;1.45;;;18.80;99.90;;;;;;5070684;28;20036;-54
2022/08/25 06:02:39;;;;;;;5.03;1.73;;;18.80;99.90;;;;;;5070711;28;20463;-49
2022/08/25 06:03:48;;;;;;;3.60;1.30;;;18.80;99.90;;;;;;5070732;28;20036;-54
2022/08/25 06:06:15;;;;;;;4.13;1.45;;;18.80;99.90;;;;;;5070656;28;20210;-51
2022/08/25 06:08:42;;;;;;;1.92;1.10;;;18.80;99.90;;;;;;5070873;28;20060;-48
2022/08/25 06:11:08;;;;;;;3.03;1.35;;;18.80;99.90;;;;;;5070543;28;20036;-52
2022/08/25 06:13:33;;;;;;;3.53;1.63;;;18.80;99.90;;;;;;5070785;28;20569;-49
2022/08/25 06:15:59;;;;;;;2.63;1.30;;;18.80;99.90;;;;;;5070600;28;20025;-50
2022/08/25 06:18:25;;;;;;;3.55;1.88;;;18.80;99.90;;;;;;5070642;28;20639;-53
2022/08/25 06:20:51;;;;;;;5.72;2.17;;;18.80;99.90;;;;;;5070829;28;20032;-49
2022/08/25 06:23:18;;;;;;;5.20;2.35;;;18.70;99.90;;;;;;5070470;28;20059;-50
2022/08/25 06:25:50;;;;;;;6.15;2.80;;;18.70;99.90;;;;;;5070544;28;20028;-50
2022/08/25 06:28:15;;;;;;;5.80;2.83;;;18.80;99.90;;;;;;5070403;28;20021;-46
2022/08/25 06:30:41;;;;;;;5.22;2.30;;;18.80;99.90;;;;;;5070706;28;20020;-48
2022/08/25 06:33:07;;;;;;;5.72;2.72;;;18.80;99.90;;;;;;5070358;28;20382;-48
2022/08/25 06:35:32;;;;;;;4.30;2.58;;;18.90;99.90;;;;;;5066339;28;20048;-46
2022/08/25 06:37:58;;;;;;;5.18;2.92;;;18.90;99.90;;;;;;5053250;28;20028;-54
2022/08/25 06:40:24;;;;;;;5.97;2.55;;;18.90;99.90;;;;;;5064791;28;20472;-53
2022/08/25 06:42:50;;;;;;;5.78;2.42;;;18.90;99.90;;;;;;5072354;28;20028;-52
2022/08/25 06:45:16;;;;;;;4.78;2.17;;;18.90;99.90;;;;;;5073937;28;20032;-48
2022/08/25 06:47:42;;;;;;;5.43;2.40;;;18.90;99.90;;;;;;5068607;28;20029;-46
2022/08/25 06:50:08;;;;;;;6.10;2.20;;;18.90;99.90;;;;;;5073807;28;20074;-47
2022/08/25 06:52:34;;;;;;;7.03;2.22;;;18.90;99.90;;;;;;5072441;28;20066;-48
2022/08/25 06:55:00;;;;;;;3.85;2.00;;;19.00;99.90;;;;;;5073808;28;20037;-48
2022/08/25 06:57:26;;;;;;;3.75;2.00;;;19.00;99.90;;;;;;5073818;28;20103;-49
2022/08/25 06:59:52;;;;;;;4.40;1.95;;;19.00;99.90;;;;;;5072412;28;20603;-52
2022/08/25 07:02:19;;;;;;;3.47;1.80;;;19.00;99.90;;;;;;5069397;28;20487;-47
2022/08/25 07:04:45;;;;;;;8.02;2.58;;;19.00;99.90;;;;;;5072412;28;20021;-51
2022/08/25 07:07:11;;;;;;;3.95;2.28;;;19.00;99.90;;;;;;5073626;28;20031;-45
2022/08/25 07:09:36;;;;;;;3.83;2.33;;;19.00;99.90;;;;;;5073384;28;20024;-48
2022/08/25 07:12:03;;;;;;;4.47;2.35;;;19.00;99.90;;;;;;5073669;28;20020;-46
2022/08/25 07:14:29;;;;;;;4.00;1.90;;;19.00;99.90;;;;;;5073335;28;20028;-47
2022/08/25 07:16:55;;;;;;;4.43;2.53;;;19.00;99.90;;;;;;5073290;28;20028;-45
2022/08/25 07:19:21;;;;;;;4.30;2.13;;;19.00;99.90;;;;;;5073183;28;20037;-50
2022/08/25 07:21:50;;;;;;;7.60;2.55;;;19.00;99.90;;;;;;5073398;28;20412;-50
2022/08/25 07:24:16;;;;;;;4.65;1.90;;;19.10;99.90;;;;;;5066408;28;20033;-48
2022/08/25 07:26:42;;;;;;;2.88;1.95;;;19.20;99.90;;;;;;5067160;28;20011;-54
2022/08/25 07:29:12;;;;;;;4.03;2.10;;;19.20;99.90;;;;;;5073082;28;20067;-46
2022/08/25 07:31:39;;;;;;;4.88;1.98;;;19.20;99.90;;;;;;5072922;28;20133;-46
2022/08/25 07:36:50;;;;;;;5.47;2.10;;;19.30;99.90;;;;;;5073130;28;20078;-47
2022/08/25 07:39:16;;;;;;;5.20;2.40;;;19.40;99.90;;;;;;5072703;28;20036;-49
2022/08/25 07:41:42;;;;;;;4.65;2.75;;;19.50;99.90;;;;;;5073119;28;20090;-47
2022/08/25 07:44:10;;;;;;;4.63;2.60;;;19.40;99.90;;;;;;5072681;28;20136;-49
2022/08/25 07:46:36;;;;;;;3.50;2.38;;;19.50;99.90;;;;;;5072731;28;20066;-51
2022/08/25 07:49:01;;;;;;;3.58;2.35;;;19.50;99.90;;;;;;5072636;28;20040;-58
2022/08/25 07:51:27;;;;;;;4.05;2.42;;;19.50;99.90;;;;;;5072733;28;20044;-50
2022/08/25 07:53:53;;;;;;;4.15;1.67;;;19.60;99.90;;;;;;5072703;28;20063;-52
2022/08/25 07:56:18;;;;;;;4.13;1.90;;;19.60;99.90;;;;;;5072610;28;20021;-49
2022/08/25 07:58:46;;;;;;;3.78;1.80;;;19.70;99.90;;;;;;5072667;28;20070;-47
2022/08/25 08:01:21;;;;;;;2.70;1.73;;;19.70;99.90;;;;;;5072430;28;20040;-49
2022/08/25 08:03:47;;;;;;;3.25;1.50;;;19.70;99.90;;;;;;5072435;28;20028;-52
2022/08/25 08:06:16;;;;;;;5.15;1.90;;;19.70;99.90;;;;;;5072341;28;20039;-55
2022/08/25 08:08:44;;;;;;;3.65;1.52;;;19.70;99.90;;;;;;5072477;28;20497;-47
2022/08/25 08:11:29;;;;;;;2.30;1.40;;;19.70;99.90;;;;;;5072185;28;20391;-53
2022/08/25 08:13:56;;;;;;;3.63;1.67;;;19.80;99.90;;;;;;5072266;28;20107;-56
2022/08/25 08:16:25;;;;;;;2.75;1.58;;;19.80;99.90;;;;;;5072364;28;20013;-51
2022/08/25 08:18:50;;;;;;;2.40;1.40;;;19.80;99.90;;;;;;5072303;28;20104;-47
2022/08/25 08:21:26;;;;;;;4.53;1.50;;;19.80;99.90;;;;;;5072011;28;20033;-47
2022/08/25 08:23:53;;;;;;;4.55;1.70;;;19.90;99.90;;;;;;5072185;28;20532;-52
2022/08/25 08:26:19;;;;;;;3.45;1.80;;;19.90;99.90;;;;;;5071900;28;20067;-53
2022/08/25 08:28:45;;;;;;;3.63;1.73;;;19.80;99.90;;;;;;5072060;28;20479;-52
2022/08/25 08:31:11;;;;;;;2.40;1.50;;;19.80;99.90;;;;;;5071793;28;20021;-46
2022/08/25 08:33:37;;;;;;;3.22;1.60;;;19.80;99.90;;;;;;5071892;28;20032;-55
2022/08/25 08:36:10;;;;;;;3.10;1.58;;;19.80;99.90;;;;;;5064856;28;20048;-56
2022/08/25 08:38:37;;;;;;;2.72;1.63;;;19.80;99.90;;;;;;5062008;28;20043;-50
2022/08/25 08:44:35;;;;;;;3.00;1.63;;;19.80;99.90;;;;;;5070754;28;20059;-53
2022/08/25 08:47:20;;;;;;;4.53;1.80;;;19.80;99.90;;;;;;5069273;28;20143;-53
2022/08/25 08:50:02;;;;;;;3.13;1.48;;;19.80;99.90;;;;;;5068984;28;20036;-56
2022/08/25 08:52:53;;;;;;;3.22;1.63;;;19.80;99.90;;;;;;5062255;28;20502;-56
2022/08/25 08:55:24;;;;;;;4.85;2.00;;;19.80;99.90;;;;;;5053056;28;20017;-48
2022/08/25 08:57:54;;;;;;;5.53;1.90;;;19.80;99.90;;;;;;5061199;28;20055;-46
2022/08/25 09:00:20;;;;;;;3.33;1.70;;;19.80;99.90;;;;;;5071242;28;20039;-55
2022/08/25 09:03:21;;;;;;;4.30;1.70;;;19.90;99.90;;;;;;5066765;28;20031;-58
2022/08/25 09:05:52;;;;;;;3.08;1.58;;;19.90;99.90;;;;;;5066210;28;20033;-58
2022/08/25 09:08:17;;;;;;;2.60;1.85;;;19.90;99.90;;;;;;5071349;28;20025;-55
2022/08/25 09:11:07;;;;;;;3.67;1.70;;;19.80;99.90;;;;;;5071558;28;20028;-54
2022/08/25 09:13:37;;;;;;;2.97;1.55;;;19.80;99.90;;;;;;5061035;28;20028;-51
2022/08/25 09:16:55;;;;;;;3.13;1.90;;;19.80;99.90;;;;;;5071077;28;20028;-55
2022/08/25 09:19:28;;;;;;;3.97;1.73;;;19.80;99.90;;;;;;5066628;28;20044;-49
2022/08/25 09:21:58;;;;;;;3.55;2.00;;;19.90;99.90;;;;;;5060243;28;20017;-51
2022/08/25 09:24:30;;;;;;;2.22;1.60;;;19.90;99.90;;;;;;5065990;28;20509;-54
2022/08/25 09:27:02;;;;;;;3.78;1.65;;;19.90;99.90;;;;;;5071350;28;20304;-51
2022/08/25 09:29:43;;;;;;;2.08;1.38;;;20.00;99.90;;;;;;5071056;28;20048;-44
2022/08/25 09:32:09;;;;;;;2.13;1.50;;;20.00;99.90;;;;;;5070895;28;20383;-43
2022/08/25 09:34:36;;;;;;;3.50;1.38;;;20.10;99.90;;;;;;5067272;28;20412;-55
2022/08/25 09:37:02;;;;;;;3.60;1.60;;;20.20;99.90;;;;;;5067756;28;20103;-49
2022/08/25 09:39:27;;;;;;;2.83;1.50;;;20.20;99.90;;;;;;5067520;28;20119;-51
2022/08/25 09:41:56;;;;;;;5.40;2.78;;;20.20;99.90;;;;;;5070075;28;20024;-44
2022/08/25 09:44:42;;;;;;;9.45;4.43;;;20.30;99.90;;;;;;5070776;28;20036;-50
2022/08/25 09:47:22;;;;;;;14.35;6.28;;;20.30;99.90;;;;;;5070632;28;20048;-54
2022/08/25 09:50:00;;;;;;;10.20;5.50;;;20.30;99.90;;;;;;5070631;28;20037;-54
2022/08/25 09:52:32;;;;;;;11.80;5.78;;;20.30;99.90;;;;;;5070750;28;20095;-46
2022/08/25 09:55:07;;;;;;;8.65;5.43;;;20.40;99.90;;;;;;5070622;28;20036;-56
2022/08/25 09:57:45;;;;;;;7.50;5.10;;;20.40;99.90;;;;;;5070562;28;20387;-53
2022/08/25 10:00:27;;;;;;;8.05;5.55;;;20.30;99.90;;;;;;5069994;28;20079;-55
2022/08/25 10:03:06;;;;;;;11.35;5.72;;;20.30;99.90;;;;;;5070806;28;20078;-44
2022/08/25 10:05:34;;;;;;;10.10;5.13;;;20.30;99.90;;;;;;5064239;28;20025;-52
2022/08/25 10:08:12;;;;;;;8.43;5.25;;;20.30;99.90;;;;;;5070694;28;20306;-49
2022/08/25 10:10:51;;;;;;;8.40;5.32;;;20.20;99.90;;;;;;5064063;28;20021;-52
2022/08/25 10:13:20;;;;;;;10.23;5.55;;;20.30;99.90;;;;;;5068969;28;20119;-57
2022/08/25 10:15:47;;;;;;;7.30;4.50;;;20.40;99.90;;;;;;5070802;28;20082;-56
2022/08/25 10:18:22;;;;;;;7.72;3.55;;;20.30;99.90;;;;;;5071105;28;20032;-48
2022/08/25 10:21:14;;;;;;;7.80;3.88;;;20.40;99.90;;;;;;5070295;28;20072;-49
2022/08/25 10:24:01;;;;;;;5.82;3.10;;;20.50;99.90;;;;;;5070278;28;20021;-52
2022/08/25 10:26:46;;;;;;;6.18;3.20;;;20.50;99.90;;;;;;5072324;28;20510;-49
2022/08/25 10:29:22;;;;;;;4.72;2.70;;;20.50;99.90;;;;;;5083941;28;20487;-49
2022/08/25 10:32:00;;;;;;;4.18;2.53;;;20.50;99.90;;;;;;5072370;28;20043;-55
2022/08/25 10:34:32;;;;;;;3.33;1.90;;;20.60;99.90;;;;;;5063939;28;20028;-52
2022/08/25 10:37:22;;;;;;;3.97;2.05;;;20.70;99.90;;;;;;5073701;28;20037;-45
2022/08/25 10:40:06;;;;;;;5.13;2.10;;;20.90;99.90;;;;;;5071394;28;20035;-50
2022/08/25 10:43:05;;;;;;;3.40;2.03;;;21.00;99.90;;;;;;5067877;28;20548;-54
2022/08/25 10:45:42;;;;;;;3.70;1.90;;;21.20;99.90;;;;;;5073339;28;20048;-52
2022/08/25 10:48:35;;;;;;;3.75;2.17;;;21.30;99.90;;;;;;5072328;28;20040;-52
2022/08/25 10:51:19;;;;;;;5.13;1.80;;;21.40;99.90;;;;;;5070825;28;20025;-51
2022/08/25 10:54:04;;;;;;;3.08;1.80;;;21.30;99.90;;;;;;5070571;28;20032;-52
2022/08/25 10:56:36;;;;;;;3.38;2.03;;;21.20;99.90;;;;;;5071383;28;20021;-50
2022/08/25 10:59:29;;;;;;;2.63;1.80;;;21.30;99.90;;;;;;5072983;28;20028;-57
2022/08/25 11:02:16;;;;;;;5.50;2.88;;;21.20;99.90;;;;;;5068374;28;20057;-54
2022/08/25 11:04:51;;;;;;;4.32;2.00;;;21.10;99.90;;;;;;5073610;28;20027;-51
2022/08/25 11:07:39;;;;;;;5.65;2.17;;;21.00;99.90;;;;;;5073460;28;20032;-47
2022/08/25 11:10:11;;;;;;;4.13;2.08;;;20.90;99.90;;;;;;5069932;28;20075;-48
2022/08/25 11:12:56;;;;;;;3.67;1.98;;;21.00;99.90;;;;;;5073330;28;20051;-50
2022/08/25 11:15:37;;;;;;;4.25;1.90;;;20.90;99.90;;;;;;5072165;28;20020;-52
2022/08/25 11:18:10;;;;;;;4.03;2.10;;;20.90;99.90;;;;;;5072257;28;20027;-48
2022/08/25 11:21:08;;;;;;;2.83;1.77;;;20.90;99.90;;;;;;5073431;28;20498;-48
2022/08/25 11:24:04;;;;;;;5.00;2.37;;;20.90;99.90;;;;;;5073165;28;20017;-46
2022/08/25 11:26:34;;;;;;;5.40;3.67;;;20.90;99.90;;;;;;5073068;28;20036;-50
2022/08/25 11:29:12;;;;;;;3.95;2.92;;;20.90;99.90;;;;;;5072830;28;20029;-56
2022/08/25 11:31:41;;;;;;;3.60;2.45;;;20.90;99.90;;;;;;5072834;28;20055;-52
2022/08/25 11:34:15;;;;;;;3.88;2.10;;;21.00;99.90;;;;;;5072986;28;20090;-49
2022/08/25 11:36:54;;;;;;;5.38;3.03;;;20.90;99.90;;;;;;5073051;28;20103;-46
2022/08/25 11:39:39;;;;;;;7.25;3.47;;;20.90;99.90;;;;;;5072837;28;20035;-54
2022/08/25 11:42:27;;;;;;;5.43;3.45;;;21.10;99.90;;;;;;5073430;28;20038;-51
2022/08/25 11:45:24;;;;;;;5.07;3.28;;;21.20;99.90;;;;;;5072865;28;20028;-55
2022/08/25 11:48:34;;;;;;;6.97;4.00;;;21.60;99.90;;;;;;5060413;28;20041;-47
2022/08/25 11:50:59;;;;;;;6.72;4.38;;;21.90;99.90;;;;;;5072347;28;20114;-49
2022/08/25 11:53:41;;;;;;;6.70;3.85;;;22.10;99.90;;;;;;5071945;28;20062;-48
2022/08/25 11:56:30;;;;;;;6.63;3.33;;;22.50;99.90;;;;;;5071230;28;20119;-46
2022/08/25 11:58:56;;;;;;;4.40;2.42;;;22.90;99.90;;;;;;5072283;28;20104;-56
2022/08/25 12:01:34;;;;;;;4.28;2.55;;;23.10;99.90;;;;;;5072430;28;20060;-47
2022/08/25 12:04:39;;;;;;;5.85;2.88;;;23.30;99.90;;;;;;5069376;28;20085;-49
2022/08/25 12:07:05;;;;;;;5.47;3.00;;;23.60;99.90;;;;;;5072170;28;20388;-50
2022/08/25 12:09:32;;;;;;;5.55;2.65;;;23.60;99.90;;;;;;5072167;28;20042;-49
2022/08/25 12:12:18;;;;;;;4.00;2.50;;;23.60;99.90;;;;;;5072348;28;20048;-52
2022/08/25 12:14:45;;;;;;;4.40;2.90;;;23.60;99.90;;;;;;5072025;28;20069;-53
2022/08/25 12:17:23;;;;;;;4.93;2.85;;;23.70;99.90;;;;;;5071398;28;20024;-53
2022/08/25 12:19:55;;;;;;;4.32;2.72;;;23.50;99.90;;;;;;5071239;28;20418;-47
2022/08/25 12:22:21;;;;;;;5.30;2.08;;;23.60;99.90;;;;;;5068579;28;20035;-52
2022/08/25 12:25:05;;;;;;;4.93;2.42;;;23.70;99.90;;;;;;5071515;28;20032;-54
2022/08/25 12:27:37;;;;;;;3.78;2.40;;;23.60;99.90;;;;;;5069205;28;20025;-50
2022/08/25 12:30:18;;;;;;;5.47;3.30;;;23.50;99.90;;;;;;5071826;28;20498;-55
2022/08/25 12:33:05;;;;;;;6.32;3.72;;;23.60;99.90;;;;;;5071662;28;20041;-54
2022/08/25 12:35:55;;;;;;;5.90;3.83;;;23.50;99.90;;;;;;5071971;28;20027;-53
2022/08/25 12:38:32;;;;;;;6.50;2.90;;;23.60;99.90;;;;;;5071762;28;20484;-47
2022/08/25 12:41:08;;;;;;;4.57;2.80;;;23.70;99.90;;;;;;5068109;28;20052;-51
2022/08/25 12:43:37;;;;;;;4.90;2.53;;;24.00;99.90;;;;;;5066222;28;20104;-53
2022/08/25 12:46:25;;;;;;;3.15;1.85;;;24.30;99.90;;;;;;5071498;28;20027;-49
2022/08/25 12:49:02;;;;;;;2.67;1.58;;;24.60;99.90;;;;;;5071167;28;20138;-46
2022/08/25 12:51:55;;;;;;;2.65;1.60;;;25.00;99.90;;;;;;5071581;28;20020;-50
2022/08/25 12:54:35;;;;;;;3.15;1.50;;;25.40;99.90;;;;;;5071341;28;20021;-53
2022/08/25 12:57:20;;;;;;;1.80;1.13;;;25.80;99.90;;;;;;5064768;28;20115;-50
2022/08/25 12:59:50;;;;;;;3.65;1.27;;;26.00;99.90;;;;;;5071388;28;20098;-51
2022/08/25 13:02:35;;;;;;;2.28;1.00;;;26.20;99.90;;;;;;5071321;28;20104;-52
2022/08/25 13:05:13;;;;;;;2.35;0.90;;;26.20;99.90;;;;;;5062418;28;20507;-54
2022/08/25 13:07:57;;;;;;;2.25;1.02;;;25.90;99.90;;;;;;5071131;28;20082;-51
2022/08/25 13:10:44;;;;;;;1.23;0.80;;;25.60;99.90;;;;;;5071142;28;20036;-52
2022/08/25 13:13:40;;;;;;;2.45;0.80;;;25.30;99.90;;;;;;5071009;28;20115;-54
2022/08/25 13:16:14;;;;;;;2.58;0.80;;;25.30;99.90;;;;;;5067618;28;20017;-46